Weather History for Winchester, TN

Change the Weather History Date:

Monday, November 19, 2012

  Actual Average (KTHA) Record (KTHA)
Temperature  
Mean Temperature 47 °F -  
Max Temperature 64 °F 62 °F 50 °F (2013)
Min Temperature 30 °F 40 °F 37 °F (2013)
Degree Days  
Heating Degree Days 18    
Moisture  
Dew Point 36 °F    
Average Humidity 74    
Maximum Humidity 100    
Minimum Humidity 39    
Precipitation  
Precipitation 0.00 in - - ()
Sea Level Pressure  
Sea Level Pressure 30.28 in    
Wind  
Wind Speed 1 mph ()    
Max Wind Speed 6 mph    
Max Gust Speed -    
Visibility 10.0 miles    
Events      
Averages and records for this station are not official NWS values.
T = Trace of Precipitation, MM = Missing Value Source: Averaged Metar Reports

Daily Weather History Graph

Daily Weather History Graph

Search for Another Location

Airport:

Trip Planner

Search our weather history database for the weather conditions in past years. The results will help you decide how hot, cold, wet, or windy it might be!

Date:

Astronomy

Nov. 19, 2012 Rise Set
Actual Time 7:23 AM EST 5:35 PM EST
Civil Twilight 6:56 AM EST 6:03 PM EST
Nautical Twilight 6:25 AM EST 6:33 PM EST
Astronomical Twilight 5:55 AM EST 7:04 PM EST
Moon 12:30 PM EST (11/19) 11:56 PM EST (11/19)
Length of Visible Light 11h 06m
Length of Day
10h 12m
Waxing Crescent, 40% of the Moon is Illuminated
Nov 19
Waxing Crescent
Nov 20
First Quarter
Nov 28
Full
Dec 6
Last Quarter
Dec 13
New

Hourly Weather History & Observations

Time (EST) Temp. Windchill Dew Point Humidity Pressure Visibility Wind Dir Wind Speed Gust Speed Precip Events Conditions
12:15 AM 33.8 °F - 30.2 °F 87% 30.35 in 10.0 mi Calm Calm - N/A   Clear
12:35 AM 33.8 °F - 30.2 °F 87% 30.35 in 10.0 mi Calm Calm - N/A   Clear
12:55 AM 33.8 °F - 30.2 °F 87% 30.34 in 10.0 mi Calm Calm - N/A   Clear
1:35 AM 32.0 °F - 30.2 °F 93% 30.33 in 10.0 mi Calm Calm - N/A   Clear
1:55 AM 33.8 °F - 30.2 °F 87% 30.33 in 10.0 mi Calm Calm - N/A   Clear
2:15 AM 32.0 °F - 30.2 °F 93% 30.33 in 10.0 mi Calm Calm - N/A   Clear
2:35 AM 30.2 °F - 30.2 °F 100% 30.33 in 10.0 mi Calm Calm - N/A   Clear
2:55 AM 32.0 °F - 30.2 °F 93% 30.32 in 10.0 mi Calm Calm - N/A   Clear
3:15 AM 32.0 °F - 30.2 °F 93% 30.33 in 10.0 mi Calm Calm - N/A   Clear
3:35 AM 30.2 °F - 28.4 °F 93% 30.33 in 10.0 mi Calm Calm - N/A   Clear
3:55 AM 30.2 °F - 30.2 °F 100% 30.33 in 10.0 mi Calm Calm - N/A   Clear
4:15 AM 32.0 °F - 30.2 °F 93% 30.32 in 10.0 mi Calm Calm - N/A   Clear
4:35 AM 30.2 °F - 28.4 °F 93% 30.31 in 10.0 mi Calm Calm - N/A   Clear
4:55 AM 32.0 °F - 30.2 °F 93% 30.32 in 10.0 mi Calm Calm - N/A   Clear
5:15 AM 32.0 °F - 30.2 °F 93% 30.32 in 10.0 mi Calm Calm - N/A   Clear
5:35 AM 30.2 °F - 28.4 °F 93% 30.32 in 10.0 mi Calm Calm - N/A   Clear
5:55 AM 30.2 °F - 28.4 °F 93% 30.32 in 10.0 mi Calm Calm - N/A   Clear
6:15 AM 30.2 °F - 30.2 °F 100% 30.32 in 10.0 mi Calm Calm - N/A   Clear
6:35 AM 30.2 °F - 28.4 °F 93% 30.33 in 10.0 mi Calm Calm - N/A   Clear
6:55 AM 30.2 °F - 28.4 °F 93% 30.33 in 10.0 mi Calm Calm - N/A   Clear
7:15 AM 30.2 °F - 28.4 °F 93% 30.33 in 10.0 mi Calm Calm - N/A   Clear
7:35 AM 30.2 °F - 30.2 °F 100% 30.32 in 10.0 mi Calm Calm - N/A   Clear
7:55 AM 32.0 °F - 30.2 °F 93% 30.32 in 10.0 mi Calm Calm - N/A   Clear
8:35 AM 37.4 °F - 33.8 °F 87% 30.33 in 10.0 mi Calm Calm - N/A   Clear
8:55 AM 41.0 °F - 35.6 °F 81% 30.33 in 10.0 mi Calm Calm - N/A   Clear
9:15 AM 42.8 °F - 35.6 °F 76% 30.33 in 7.0 mi Calm Calm - N/A   Clear
9:35 AM 44.6 °F - 35.6 °F 71% 30.33 in 10.0 mi Calm Calm - N/A   Clear
9:55 AM 46.4 °F - 35.6 °F 66% 30.34 in 10.0 mi Calm Calm - N/A   Clear
10:15 AM 48.2 °F - 35.6 °F 62% 30.34 in 10.0 mi Calm Calm - N/A   Clear
10:35 AM 51.8 °F - 37.4 °F 58% 30.34 in 10.0 mi Calm Calm - N/A   Clear
10:55 AM 55.4 °F - 39.2 °F 54% 30.34 in 10.0 mi Calm Calm - N/A   Clear
11:15 AM 57.2 °F - 37.4 °F 48% 30.34 in 10.0 mi Calm Calm - N/A   Clear
11:35 AM 60.8 °F - 35.6 °F 39% 30.33 in 10.0 mi Variable 3.5 mph - N/A   Clear
11:55 AM 60.8 °F - 35.6 °F 39% 30.32 in 10.0 mi WNW 3.5 mph - N/A   Clear
12:15 PM 60.8 °F - 39.2 °F 45% 30.31 in 10.0 mi NNE 4.6 mph - N/A   Clear
12:35 PM 60.8 °F - 39.2 °F 45% 30.30 in 10.0 mi North 3.5 mph - N/A   Clear
12:55 PM 62.6 °F - 42.8 °F 48% 30.29 in 10.0 mi NW 4.6 mph - N/A   Clear
1:15 PM 62.6 °F - 42.8 °F 48% 30.28 in 10.0 mi Variable 4.6 mph - N/A   Clear
1:35 PM 62.6 °F - 42.8 °F 48% 30.27 in 10.0 mi WSW 5.8 mph - N/A   Clear
1:55 PM 62.6 °F - 42.8 °F 48% 30.27 in 10.0 mi Variable 4.6 mph - N/A   Clear
2:15 PM 64.4 °F - 42.8 °F 45% 30.26 in 10.0 mi Variable 3.5 mph - N/A   Clear
2:35 PM 62.6 °F - 41.0 °F 45% 30.25 in 10.0 mi Calm Calm - N/A   Clear
2:55 PM 64.4 °F - 41.0 °F 42% 30.25 in 10.0 mi WSW 5.8 mph - N/A   Clear
3:15 PM 64.4 °F - 41.0 °F 42% 30.24 in 10.0 mi Variable 3.5 mph - N/A   Clear
3:35 PM 64.4 °F - 39.2 °F 40% 30.24 in 10.0 mi Calm Calm - N/A   Clear
3:55 PM 64.4 °F - 39.2 °F 40% 30.23 in 10.0 mi West 3.5 mph - N/A   Clear
4:15 PM 64.4 °F - 39.2 °F 40% 30.23 in 10.0 mi Calm Calm - N/A   Clear
4:35 PM 64.4 °F - 41.0 °F 42% 30.23 in 10.0 mi Calm Calm - N/A   Clear
4:55 PM 62.6 °F - 39.2 °F 42% 30.22 in 10.0 mi Calm Calm - N/A   Clear
5:15 PM 60.8 °F - 41.0 °F 48% 30.21 in 10.0 mi Calm Calm - N/A   Clear
5:35 PM 57.2 °F - 41.0 °F 55% 30.20 in 10.0 mi Calm Calm - N/A   Clear
5:55 PM 53.6 °F - 41.0 °F 62% 30.20 in 10.0 mi Calm Calm - N/A   Clear
6:15 PM 51.8 °F - 41.0 °F 67% 30.22 in 10.0 mi Calm Calm - N/A   Clear
6:35 PM 46.4 °F 45.2 °F 39.2 °F 76% 30.22 in 10.0 mi East 3.5 mph - N/A   Clear
6:55 PM 48.2 °F - 39.2 °F 71% 30.22 in 10.0 mi Calm Calm - N/A   Clear
7:15 PM 46.4 °F - 39.2 °F 76% 30.22 in 10.0 mi Calm Calm - N/A   Clear
7:35 PM 44.6 °F - 39.2 °F 81% 30.22 in 10.0 mi Calm Calm - N/A   Clear
7:55 PM 42.8 °F - 37.4 °F 81% 30.22 in 10.0 mi Calm Calm - N/A   Clear
8:15 PM 44.6 °F - 39.2 °F 81% 30.23 in 10.0 mi Calm Calm - N/A   Clear
8:35 PM 42.8 °F - 37.4 °F 81% 30.23 in 10.0 mi Calm Calm - N/A   Clear
8:55 PM 41.0 °F - 37.4 °F 87% 30.23 in 10.0 mi Calm Calm - N/A   Clear
9:15 PM 39.2 °F - 37.4 °F 93% 30.24 in 10.0 mi Calm Calm - N/A   Clear
9:35 PM 42.8 °F - 37.4 °F 81% 30.24 in 10.0 mi Calm Calm - N/A   Clear
9:55 PM 39.2 °F - 37.4 °F 93% 30.23 in 10.0 mi Calm Calm - N/A   Clear
10:15 PM 39.2 °F - 37.4 °F 93% 30.23 in 10.0 mi Calm Calm - N/A   Clear
10:35 PM 39.2 °F - 37.4 °F 93% 30.22 in 10.0 mi Calm Calm - N/A   Clear
10:55 PM 39.2 °F - 37.4 °F 93% 30.22 in 10.0 mi Calm Calm - N/A   Clear
11:15 PM 39.2 °F - 37.4 °F 93% 30.22 in 10.0 mi Calm Calm - N/A   Clear
11:35 PM 39.2 °F - 37.4 °F 93% 30.21 in 10.0 mi Calm Calm - N/A   Clear
11:55 PM 39.2 °F - 37.4 °F 93% 30.21 in 10.0 mi Calm Calm - N/A   Scattered Clouds